Weather at Chico Municipal Airport

Public forecast

Using degrees Fahrenheit for public forecast. Weather courtesy of forecast.io.

Current aviation weather report (METAR) for Chico Municipal Airport

Retrieved 2021/01/28 14:15 UTC (3 minutes ago):

KCIC 281415Z AUTO 16011KT 10SM OVC006 09/08 A2973 RMK AO1

Closest aviation forecast (TAF) to Chico Municipal Airport

Closest forecast is Red Bluff Municipal Airport, 28.0 nm (51.8 km) NW. Retrieved 2021/01/28 12:22 UTC (2 hours ago):

TAF KRBL 281120Z 2812/2912 VRB04KT 3SM BR OVC004 FM281900 16006KT 4SM -RA OVC007 FM290500 30002KT P6SM -SHRA OVC015